Time;durP1;ratioP1;P1;durP2;ratioP2;P2;SDS_P1;SDS_P2;PMS_P1;PMS_P2;Temp;Humidity;BMP_temperature;BMP_pressure;BME280_temperature;BME280_humidity;BME280_pressure;Samples;Min_cycle;Max_cycle;Signal;HPM_P1;HPM_P2
2022/03/09 00:00:56;;;;;;;15.57;10.30;;;7.50;47.10;;;;;;5047054;28;20036;-71
2022/03/09 00:03:21;;;;;;;15.95;9.50;;;7.50;47.20;;;;;;5040825;28;20034;-72
2022/03/09 00:05:47;;;;;;;14.55;8.77;;;7.50;47.20;;;;;;5045909;28;20037;-71
2022/03/09 00:08:12;;;;;;;16.52;10.98;;;7.40;47.20;;;;;;5049136;28;20354;-71
2022/03/09 00:10:38;;;;;;;17.17;10.27;;;7.40;47.30;;;;;;5049743;28;20110;-71
2022/03/09 00:13:04;;;;;;;16.75;10.07;;;7.40;47.40;;;;;;5035012;28;20466;-71
2022/03/09 00:15:30;;;;;;;16.15;9.93;;;7.40;47.40;;;;;;5039893;28;20600;-71
2022/03/09 00:17:55;;;;;;;13.93;9.43;;;7.30;47.50;;;;;;5045163;28;20021;-71
2022/03/09 00:20:21;;;;;;;16.17;10.25;;;7.30;47.60;;;;;;5036194;28;20039;-71
2022/03/09 00:22:46;;;;;;;15.82;10.32;;;7.20;47.60;;;;;;5053804;28;20032;-71
2022/03/09 00:25:12;;;;;;;15.90;9.35;;;7.20;47.80;;;;;;5055675;28;20425;-71
2022/03/09 00:27:38;;;;;;;16.02;9.95;;;7.20;48.00;;;;;;5045188;28;20038;-71
2022/03/09 00:30:05;;;;;;;16.25;9.73;;;7.10;48.00;;;;;;5035369;28;20045;-71
2022/03/09 00:32:31;;;;;;;16.77;9.88;;;7.10;48.00;;;;;;5037617;28;20091;-71
2022/03/09 00:34:56;;;;;;;19.30;10.40;;;7.10;48.10;;;;;;5039075;28;20041;-71
2022/03/09 00:37:22;;;;;;;16.75;8.82;;;7.00;48.20;;;;;;5041105;28;20030;-71
2022/03/09 00:39:47;;;;;;;14.95;10.27;;;7.00;48.30;;;;;;5055296;28;20028;-71
2022/03/09 00:42:13;;;;;;;16.27;9.77;;;6.90;48.40;;;;;;5039875;28;20511;-71
2022/03/09 00:44:39;;;;;;;14.45;9.18;;;6.90;48.60;;;;;;5050915;28;20033;-71
2022/03/09 00:47:04;;;;;;;16.83;9.70;;;6.90;48.60;;;;;;5045024;28;20111;-71
2022/03/09 00:49:30;;;;;;;16.73;9.38;;;6.80;48.60;;;;;;5036446;28;20032;-71
2022/03/09 00:51:56;;;;;;;17.67;9.80;;;6.80;48.50;;;;;;5044933;28;20033;-72
2022/03/09 00:54:21;;;;;;;16.70;10.05;;;6.80;48.70;;;;;;5034721;28;20033;-72
2022/03/09 00:56:47;;;;;;;17.10;10.27;;;6.80;48.70;;;;;;5037938;28;20032;-71
2022/03/09 00:59:12;;;;;;;14.60;9.23;;;6.80;48.70;;;;;;5034165;28;20454;-71
2022/03/09 01:01:38;;;;;;;17.15;10.18;;;6.70;48.70;;;;;;5040951;28;20021;-71
2022/03/09 01:04:04;;;;;;;17.00;9.50;;;6.70;48.80;;;;;;5036267;28;20090;-71
2022/03/09 01:06:29;;;;;;;17.23;9.90;;;6.70;48.80;;;;;;5048666;28;20120;-72
2022/03/09 01:08:57;;;;;;;15.27;9.32;;;6.60;48.80;;;;;;5053077;28;20036;-71
2022/03/09 01:11:23;;;;;;;15.95;10.18;;;6.60;48.90;;;;;;5051132;28;20503;-71
2022/03/09 01:13:48;;;;;;;17.50;10.52;;;6.60;49.00;;;;;;5044453;28;20115;-72
2022/03/09 01:16:14;;;;;;;18.45;10.07;;;6.60;49.10;;;;;;5047615;28;20021;-71
2022/03/09 01:18:40;;;;;;;15.00;9.45;;;6.60;49.10;;;;;;5053853;28;20446;-71
2022/03/09 01:21:06;;;;;;;18.33;10.38;;;6.60;49.20;;;;;;5053263;28;20021;-71
2022/03/09 01:23:32;;;;;;;15.55;9.85;;;6.50;49.20;;;;;;5040951;28;20029;-71
2022/03/09 01:25:59;;;;;;;19.52;11.13;;;6.50;49.30;;;;;;5049474;28;20366;-71
2022/03/09 01:28:24;;;;;;;16.08;9.52;;;6.50;49.40;;;;;;5051025;28;20033;-72
2022/03/09 01:30:50;;;;;;;16.20;9.90;;;6.50;49.40;;;;;;5052587;28;20053;-71
2022/03/09 01:33:15;;;;;;;13.60;8.98;;;6.40;49.50;;;;;;5041872;28;20052;-71
2022/03/09 01:35:41;;;;;;;16.63;9.57;;;6.40;49.60;;;;;;5051866;28;20129;-71
2022/03/09 01:38:07;;;;;;;15.50;9.85;;;6.40;49.50;;;;;;5045664;28;20032;-71
2022/03/09 01:40:32;;;;;;;16.60;9.50;;;6.30;49.50;;;;;;5054372;28;20429;-71
2022/03/09 01:42:58;;;;;;;16.52;9.93;;;6.30;49.60;;;;;;5042873;28;20025;-71
2022/03/09 01:45:25;;;;;;;15.70;9.50;;;6.30;49.60;;;;;;5053129;28;20051;-71
2022/03/09 01:47:51;;;;;;;17.70;9.75;;;6.30;49.70;;;;;;5042916;28;20029;-71
2022/03/09 01:50:17;;;;;;;16.15;8.95;;;6.30;49.80;;;;;;5051224;28;20029;-71
2022/03/09 01:52:43;;;;;;;15.95;10.02;;;6.30;49.80;;;;;;5045815;28;20026;-71
2022/03/09 01:55:09;;;;;;;16.75;8.85;;;6.20;49.90;;;;;;5041596;28;20029;-71
2022/03/09 01:57:35;;;;;;;17.85;10.27;;;6.20;49.90;;;;;;5039174;28;20026;-71
2022/03/09 02:00:02;;;;;;;15.55;9.43;;;6.20;49.90;;;;;;5034387;28;20030;-70
2022/03/09 02:02:31;;;;;;;15.98;9.75;;;6.20;49.90;;;;;;5039343;28;20079;-71
2022/03/09 02:04:57;;;;;;;15.75;9.25;;;6.20;50.00;;;;;;5039311;28;20026;-71
2022/03/09 02:09:41;;;;;;;15.30;9.57;;;6.10;50.00;;;;;;5046721;28;20040;-71
2022/03/09 02:10:09;;;;;;;17.83;10.43;;;6.20;50.10;;;;;;5041344;28;20033;-71
2022/03/09 02:12:35;;;;;;;16.58;9.60;;;6.10;50.10;;;;;;5041932;28;20108;-71
2022/03/09 02:15:01;;;;;;;16.60;9.48;;;6.10;50.20;;;;;;5044016;28;20439;-71
2022/03/09 02:17:28;;;;;;;15.95;9.43;;;6.10;50.20;;;;;;5041102;28;20031;-71
2022/03/09 02:19:55;;;;;;;16.15;9.00;;;6.00;50.20;;;;;;5057012;28;20076;-71
2022/03/09 02:22:38;;;;;;;15.35;9.32;;;6.00;50.30;;;;;;5046159;28;20087;-71
2022/03/09 02:25:08;;;;;;;20.23;10.40;;;6.00;50.20;;;;;;5024455;28;20370;-71
2022/03/09 02:27:34;;;;;;;15.77;9.68;;;6.00;50.20;;;;;;5040412;28;20040;-71
2022/03/09 02:30:01;;;;;;;17.88;9.85;;;6.00;50.30;;;;;;5046658;28;20049;-71
2022/03/09 02:32:26;;;;;;;17.60;9.60;;;5.90;50.40;;;;;;5038035;28;20322;-71
2022/03/09 02:34:52;;;;;;;16.35;10.20;;;5.90;50.40;;;;;;5045586;28;20033;-73
2022/03/09 02:37:18;;;;;;;16.27;10.13;;;5.90;50.50;;;;;;5036742;28;20434;-71
2022/03/09 02:39:44;;;;;;;15.82;10.30;;;5.90;50.50;;;;;;5055845;28;20032;-71
2022/03/09 02:42:10;;;;;;;16.65;9.73;;;5.90;50.40;;;;;;5049617;28;20014;-71
2022/03/09 02:44:36;;;;;;;17.48;9.70;;;5.90;50.40;;;;;;5037787;28;20021;-71
2022/03/09 02:47:03;;;;;;;17.17;9.32;;;5.90;50.40;;;;;;5054603;28;20033;-72
2022/03/09 02:49:29;;;;;;;15.50;9.23;;;5.90;50.50;;;;;;5041140;28;20044;-71
2022/03/09 02:51:55;;;;;;;16.23;9.85;;;5.80;50.60;;;;;;5043400;28;20033;-72
2022/03/09 02:54:21;;;;;;;15.93;9.30;;;5.80;50.70;;;;;;5041617;28;20039;-71
2022/03/09 02:56:47;;;;;;;15.60;9.82;;;5.80;50.70;;;;;;5042289;28;20029;-71
2022/03/09 02:59:12;;;;;;;16.48;9.95;;;5.80;50.70;;;;;;5024256;28;20035;-71
2022/03/09 03:01:38;;;;;;;17.38;10.00;;;5.70;50.80;;;;;;5055876;28;20037;-71
2022/03/09 03:04:04;;;;;;;20.67;10.90;;;5.70;50.80;;;;;;5036662;28;20059;-70
2022/03/09 03:06:30;;;;;;;18.88;10.25;;;5.70;50.80;;;;;;5036223;28;20389;-70
2022/03/09 03:08:56;;;;;;;14.50;9.05;;;5.70;50.80;;;;;;5047638;28;20037;-70
2022/03/09 03:11:22;;;;;;;17.05;10.77;;;5.70;50.90;;;;;;5020738;28;20040;-70
2022/03/09 03:13:49;;;;;;;15.45;9.07;;;5.60;50.90;;;;;;5031712;28;20108;-70
2022/03/09 03:16:15;;;;;;;19.67;10.98;;;5.60;51.50;;;;;;5038699;28;20092;-71
2022/03/09 03:18:43;;;;;;;14.93;9.18;;;5.60;51.10;;;;;;5042778;28;20031;-71
2022/03/09 03:21:08;;;;;;;16.60;10.25;;;5.60;51.20;;;;;;5043058;28;20369;-70
2022/03/09 03:23:35;;;;;;;16.75;9.48;;;5.60;51.10;;;;;;5040648;28;20025;-71
2022/03/09 03:26:03;;;;;;;18.92;10.13;;;5.60;51.20;;;;;;5043528;28;20488;-71
2022/03/09 03:28:29;;;;;;;15.73;8.93;;;5.60;51.30;;;;;;5056402;28;20469;-70
2022/03/09 03:30:55;;;;;;;17.92;9.35;;;5.50;51.20;;;;;;5051522;28;20049;-70
2022/03/09 03:33:21;;;;;;;16.83;9.00;;;5.50;51.30;;;;;;5051646;28;20025;-70
2022/03/09 03:35:48;;;;;;;16.80;9.77;;;5.50;51.50;;;;;;5054636;28;20454;-70
2022/03/09 03:38:14;;;;;;;16.77;9.30;;;5.50;51.60;;;;;;5056323;28;20104;-70
2022/03/09 03:40:40;;;;;;;15.85;9.40;;;5.40;51.60;;;;;;5054487;28;20024;-70
2022/03/09 03:43:06;;;;;;;18.23;9.75;;;5.40;51.60;;;;;;5053197;28;20039;-70
2022/03/09 03:45:32;;;;;;;16.20;9.27;;;5.40;51.60;;;;;;5052020;28;20032;-70
2022/03/09 03:47:58;;;;;;;16.85;9.63;;;5.40;51.70;;;;;;5056762;28;20389;-71
2022/03/09 03:50:24;;;;;;;16.23;9.93;;;5.40;51.80;;;;;;5054075;28;20075;-71
2022/03/09 03:52:50;;;;;;;17.27;10.20;;;5.40;51.80;;;;;;5044065;28;20037;-70
2022/03/09 03:55:16;;;;;;;18.23;10.20;;;5.30;51.80;;;;;;5050373;28;20036;-70
2022/03/09 03:57:41;;;;;;;17.10;8.93;;;5.30;51.90;;;;;;5056263;28;20438;-70
2022/03/09 04:00:09;;;;;;;15.10;9.13;;;5.30;51.90;;;;;;5042231;28;20029;-70
2022/03/09 04:02:34;;;;;;;17.67;10.13;;;5.30;52.00;;;;;;5053394;28;20033;-70
2022/03/09 04:05:00;;;;;;;15.50;9.43;;;5.30;52.00;;;;;;5053022;28;20033;-70
2022/03/09 04:07:26;;;;;;;17.42;9.30;;;5.20;52.10;;;;;;5056220;28;20029;-71
2022/03/09 04:09:53;;;;;;;18.00;9.10;;;5.20;52.10;;;;;;5054985;28;20032;-70
2022/03/09 04:12:19;;;;;;;16.73;9.43;;;5.20;52.20;;;;;;5047343;28;20021;-71
2022/03/09 04:14:45;;;;;;;17.00;9.05;;;5.20;52.20;;;;;;5051847;28;20039;-71
2022/03/09 04:17:11;;;;;;;19.17;9.98;;;5.20;52.20;;;;;;5053006;28;20017;-71
2022/03/09 04:19:36;;;;;;;16.17;10.20;;;5.20;52.30;;;;;;5049468;28;20075;-71
2022/03/09 04:22:03;;;;;;;17.17;9.18;;;5.20;52.30;;;;;;5039661;28;20116;-70
2022/03/09 04:24:28;;;;;;;19.67;10.48;;;5.20;52.40;;;;;;5042517;28;20387;-71
2022/03/09 04:26:54;;;;;;;16.70;9.65;;;5.10;52.30;;;;;;5036090;28;20091;-71
2022/03/09 04:29:19;;;;;;;17.90;10.63;;;5.10;52.30;;;;;;5035361;28;20049;-71
2022/03/09 04:31:45;;;;;;;16.92;9.43;;;5.10;52.50;;;;;;5045890;28;20029;-71
2022/03/09 04:34:11;;;;;;;16.60;9.80;;;5.10;52.50;;;;;;5047396;28;20033;-71
2022/03/09 04:36:36;;;;;;;15.48;9.02;;;5.00;52.50;;;;;;5048650;28;20025;-71
2022/03/09 04:39:03;;;;;;;17.65;10.02;;;5.00;52.60;;;;;;5054288;28;20021;-70
2022/03/09 04:41:29;;;;;;;16.73;9.35;;;5.00;52.70;;;;;;5043698;28;20033;-71
2022/03/09 04:43:55;;;;;;;15.77;10.02;;;5.00;52.70;;;;;;5054362;28;20032;-70
2022/03/09 04:46:20;;;;;;;16.27;10.17;;;5.00;52.80;;;;;;5045132;28;20075;-71
2022/03/09 04:48:48;;;;;;;15.63;9.82;;;4.90;52.70;;;;;;5054083;28;20127;-71
2022/03/09 04:51:15;;;;;;;16.37;9.60;;;5.00;52.80;;;;;;5044479;28;20025;-71
2022/03/09 04:53:40;;;;;;;16.08;10.25;;;4.90;52.70;;;;;;5044224;28;20033;-70
2022/03/09 04:56:06;;;;;;;17.13;10.10;;;4.90;52.80;;;;;;5042178;28;20036;-70
2022/03/09 04:58:32;;;;;;;17.27;10.97;;;4.90;52.80;;;;;;5035069;28;20029;-70
2022/03/09 05:00:58;;;;;;;16.73;9.27;;;4.90;52.80;;;;;;5043071;28;20025;-70
2022/03/09 05:03:24;;;;;;;16.48;10.10;;;4.90;52.90;;;;;;5052838;28;20170;-71
2022/03/09 05:05:49;;;;;;;16.50;9.50;;;4.80;52.90;;;;;;5052891;28;20040;-70
2022/03/09 05:08:15;;;;;;;15.77;9.07;;;4.80;52.90;;;;;;5034241;28;20067;-70
2022/03/09 05:10:40;;;;;;;16.85;10.52;;;4.80;52.90;;;;;;5036897;28;20033;-70
2022/03/09 05:13:06;;;;;;;18.73;10.93;;;4.80;53.00;;;;;;5036166;28;20067;-70
2022/03/09 05:15:32;;;;;;;18.37;10.07;;;4.80;53.10;;;;;;5039389;28;20029;-71
2022/03/09 05:17:58;;;;;;;16.00;10.10;;;4.70;53.10;;;;;;5054119;28;20412;-70
2022/03/09 05:20:23;;;;;;;19.77;9.83;;;4.70;53.10;;;;;;5049006;28;21140;-70
2022/03/09 05:22:50;;;;;;;17.43;10.27;;;4.70;53.10;;;;;;5041179;28;20060;-70
2022/03/09 05:25:16;;;;;;;17.20;9.63;;;4.70;53.20;;;;;;5051484;28;20053;-70
2022/03/09 05:27:42;;;;;;;16.53;9.63;;;4.70;53.30;;;;;;5052867;28;20044;-70
2022/03/09 05:30:09;;;;;;;19.37;10.83;;;4.60;53.30;;;;;;5039136;28;20042;-71
2022/03/09 05:32:38;;;;;;;16.70;10.27;;;4.60;53.30;;;;;;5050127;28;20464;-71
2022/03/09 05:35:05;;;;;;;17.30;10.07;;;4.60;53.40;;;;;;5044069;28;20052;-70
2022/03/09 05:37:42;;;;;;;14.80;9.00;;;4.60;53.50;;;;;;5032698;28;20455;-70
2022/03/09 05:40:09;;;;;;;16.10;10.00;;;4.60;53.50;;;;;;5033420;28;20109;-71
2022/03/09 05:42:35;;;;;;;16.93;9.30;;;4.60;53.50;;;;;;5035467;28;20424;-70
2022/03/09 05:45:01;;;;;;;17.60;9.90;;;4.60;53.40;;;;;;5056259;28;20112;-71
2022/03/09 05:47:27;;;;;;;18.90;10.50;;;4.60;53.40;;;;;;5036609;28;20025;-70
2022/03/09 05:49:52;;;;;;;19.27;10.80;;;4.60;53.50;;;;;;5058097;28;20549;-70
2022/03/09 05:52:19;;;;;;;18.97;11.07;;;4.60;53.50;;;;;;5049080;28;20032;-71
2022/03/09 05:54:45;;;;;;;16.37;9.73;;;4.60;53.50;;;;;;5057471;28;20458;-71
2022/03/09 05:57:21;;;;;;;15.30;9.77;;;4.60;53.60;;;;;;5051390;28;20394;-71
2022/03/09 05:59:48;;;;;;;16.40;10.13;;;4.60;53.60;;;;;;5057337;28;20040;-71
2022/03/09 06:02:13;;;;;;;15.93;9.17;;;4.60;53.60;;;;;;5029563;28;20013;-71
2022/03/09 06:04:40;;;;;;;18.90;10.13;;;4.60;53.60;;;;;;5050695;28;20029;-70
2022/03/09 06:07:06;;;;;;;18.50;9.80;;;4.60;53.60;;;;;;5042227;28;20114;-71
2022/03/09 06:09:31;;;;;;;17.23;10.10;;;4.60;53.70;;;;;;5036895;28;20031;-71
2022/03/09 06:11:57;;;;;;;22.43;9.87;;;4.50;53.60;;;;;;5038755;28;20129;-71
2022/03/09 06:14:23;;;;;;;17.37;10.43;;;4.60;53.70;;;;;;5044729;28;20054;-71
2022/03/09 06:16:49;;;;;;;19.07;10.47;;;4.50;53.70;;;;;;5021842;28;20446;-72
2022/03/09 06:19:16;;;;;;;17.63;10.13;;;4.50;53.70;;;;;;5039219;28;20335;-71
2022/03/09 06:21:41;;;;;;;15.23;9.73;;;4.60;53.80;;;;;;5044804;28;20029;-71
2022/03/09 06:24:09;;;;;;;16.33;8.80;;;4.50;53.80;;;;;;5050178;28;20029;-70
2022/03/09 06:26:36;;;;;;;17.47;10.10;;;4.60;53.80;;;;;;5038913;28;20083;-71
2022/03/09 06:29:03;;;;;;;18.37;10.23;;;4.60;53.80;;;;;;5036736;28;20091;-71
2022/03/09 06:31:28;;;;;;;18.27;9.90;;;4.60;53.80;;;;;;5037493;28;20447;-71
2022/03/09 06:33:55;;;;;;;17.67;9.80;;;4.60;53.80;;;;;;5040201;28;20358;-71
2022/03/09 06:36:20;;;;;;;17.27;9.70;;;4.60;53.80;;;;;;5038262;28;20071;-71
2022/03/09 06:38:46;;;;;;;16.30;9.23;;;4.60;53.80;;;;;;5038228;28;20095;-71
2022/03/09 06:41:12;;;;;;;18.17;10.23;;;4.60;53.70;;;;;;5043859;28;20024;-71
2022/03/09 06:43:38;;;;;;;15.90;9.87;;;4.60;53.70;;;;;;5045637;28;20033;-71
2022/03/09 06:46:04;;;;;;;18.83;10.27;;;4.70;53.70;;;;;;5036928;28;20041;-71
2022/03/09 06:48:30;;;;;;;15.48;9.23;;;4.70;54.30;;;;;;5043172;28;20040;-71
2022/03/09 06:50:56;;;;;;;17.50;9.73;;;4.80;53.70;;;;;;5037982;28;20041;-71
2022/03/09 06:53:21;;;;;;;14.00;8.87;;;4.80;53.60;;;;;;5054784;28;20047;-71
2022/03/09 06:55:47;;;;;;;16.27;9.50;;;4.90;53.60;;;;;;5052304;28;20045;-71
2022/03/09 06:58:13;;;;;;;16.10;8.93;;;4.90;53.50;;;;;;5036500;28;20049;-71
2022/03/09 07:00:39;;;;;;;15.52;9.20;;;4.90;53.50;;;;;;5042147;28;20330;-71
2022/03/09 07:03:05;;;;;;;16.98;8.85;;;5.00;53.50;;;;;;5045961;28;20036;-70
2022/03/09 07:05:32;;;;;;;34.37;10.73;;;5.00;53.40;;;;;;5051254;28;20462;-69
2022/03/09 07:07:58;;;;;;;16.63;8.97;;;5.20;53.30;;;;;;5053409;28;20342;-70
2022/03/09 07:10:23;;;;;;;14.93;9.30;;;5.30;53.20;;;;;;5051716;28;20106;-70
2022/03/09 07:12:49;;;;;;;17.13;9.23;;;5.40;53.00;;;;;;5049210;28;20033;-72
2022/03/09 07:15:15;;;;;;;15.37;9.47;;;5.60;52.70;;;;;;5041919;28;20110;-73
2022/03/09 07:17:42;;;;;;;18.65;10.25;;;5.70;52.30;;;;;;5051103;28;20470;-73
2022/03/09 07:20:09;;;;;;;16.37;9.53;;;5.90;52.00;;;;;;5041145;28;20358;-73
2022/03/09 07:22:35;;;;;;;19.63;11.23;;;6.00;51.60;;;;;;5042609;28;20025;-73
2022/03/09 07:25:00;;;;;;;14.80;9.57;;;6.20;51.40;;;;;;5048728;28;20087;-74
2022/03/09 07:27:26;;;;;;;17.30;9.50;;;6.40;51.20;;;;;;5055324;28;20033;-75
2022/03/09 07:29:54;;;;;;;18.08;9.10;;;6.50;50.80;;;;;;5053389;28;20056;-74
2022/03/09 07:32:20;;;;;;;14.43;8.68;;;6.60;50.50;;;;;;5044506;28;20325;-74
2022/03/09 07:34:46;;;;;;;14.88;8.05;;;6.70;50.20;;;;;;5028533;28;20086;-72
2022/03/09 07:37:12;;;;;;;16.48;9.38;;;6.90;50.00;;;;;;5037475;28;20032;-74
2022/03/09 07:39:37;;;;;;;16.92;9.05;;;7.00;49.80;;;;;;5046981;28;20021;-74
2022/03/09 07:42:03;;;;;;;12.00;7.53;;;7.10;49.70;;;;;;5036881;28;20374;-74
2022/03/09 07:44:29;;;;;;;16.20;8.65;;;7.20;49.50;;;;;;5034910;28;20051;-74
2022/03/09 07:46:55;;;;;;;13.85;8.07;;;7.30;49.20;;;;;;5055549;28;20060;-75
2022/03/09 07:49:20;;;;;;;12.45;7.70;;;7.50;49.00;;;;;;5051038;28;20507;-74
2022/03/09 07:51:48;;;;;;;15.40;8.18;;;7.60;48.70;;;;;;5038009;28;20037;-73
2022/03/09 07:54:14;;;;;;;12.32;7.57;;;7.80;48.40;;;;;;5051729;28;20041;-73
2022/03/09 07:56:40;;;;;;;14.40;7.60;;;7.90;48.00;;;;;;5045565;28;20032;-73
2022/03/09 07:59:08;;;;;;;12.85;7.57;;;8.10;47.70;;;;;;5046342;28;20353;-73
2022/03/09 08:01:34;;;;;;;17.45;8.50;;;8.20;47.50;;;;;;5036661;28;20032;-74
2022/03/09 08:04:00;;;;;;;13.10;7.55;;;8.40;47.20;;;;;;5046875;28;20508;-74
2022/03/09 08:06:25;;;;;;;11.15;6.55;;;8.50;46.90;;;;;;5052542;28;20025;-73
2022/03/09 08:08:51;;;;;;;13.73;7.45;;;8.70;46.70;;;;;;5051964;28;20099;-73
2022/03/09 08:11:17;;;;;;;13.52;7.28;;;8.80;46.30;;;;;;5055774;28;20028;-73
2022/03/09 08:13:42;;;;;;;12.50;7.35;;;9.00;46.60;;;;;;5044007;28;20029;-72
2022/03/09 08:16:08;;;;;;;15.63;7.53;;;9.20;45.70;;;;;;5039692;28;20041;-74
2022/03/09 08:18:34;;;;;;;18.85;7.10;;;9.40;45.30;;;;;;5034835;28;20039;-73
2022/03/09 08:21:00;;;;;;;13.07;7.10;;;9.60;45.00;;;;;;5048190;28;20480;-72
2022/03/09 08:23:26;;;;;;;12.48;7.15;;;9.80;44.60;;;;;;5039034;28;20041;-71
2022/03/09 08:25:52;;;;;;;11.65;6.35;;;10.00;44.70;;;;;;5055449;28;20044;-70
2022/03/09 08:28:18;;;;;;;11.57;6.47;;;10.20;44.10;;;;;;5053822;28;20044;-70
2022/03/09 08:30:44;;;;;;;13.88;6.80;;;10.30;43.80;;;;;;5054524;28;20036;-71
2022/03/09 08:33:10;;;;;;;11.55;6.82;;;10.50;43.50;;;;;;5040981;28;20513;-70
2022/03/09 08:35:36;;;;;;;11.40;6.72;;;10.70;43.80;;;;;;5052782;28;20045;-71
2022/03/09 08:38:01;;;;;;;12.80;6.70;;;10.90;42.90;;;;;;5023081;28;20025;-69
2022/03/09 08:40:27;;;;;;;13.52;7.30;;;11.00;42.60;;;;;;5051485;28;20120;-70
2022/03/09 08:42:53;;;;;;;14.27;7.25;;;11.20;42.40;;;;;;5051619;28;20029;-71
2022/03/09 08:45:18;;;;;;;12.27;6.10;;;11.40;42.20;;;;;;5052976;28;20345;-71
2022/03/09 08:47:44;;;;;;;11.73;6.60;;;11.50;41.90;;;;;;5043337;28;20376;-71
2022/03/09 08:50:10;;;;;;;11.55;6.53;;;11.70;41.70;;;;;;5048016;28;20037;-70
2022/03/09 08:52:36;;;;;;;10.73;6.55;;;11.90;41.50;;;;;;5053839;28;20083;-72
2022/03/09 08:55:02;;;;;;;16.42;7.63;;;12.00;41.10;;;;;;5053742;28;20043;-71
2022/03/09 08:57:28;;;;;;;12.05;5.90;;;12.20;40.90;;;;;;5045752;28;20036;-71
2022/03/09 08:59:54;;;;;;;12.30;5.70;;;12.40;40.70;;;;;;5034130;28;20033;-71
2022/03/09 09:02:21;;;;;;;11.90;6.55;;;12.50;40.40;;;;;;5035305;28;20032;-71
2022/03/09 09:04:47;;;;;;;12.85;7.35;;;12.60;40.20;;;;;;5035512;28;20029;-71
2022/03/09 09:07:12;;;;;;;11.25;6.65;;;12.70;39.90;;;;;;5038794;28;20024;-71
2022/03/09 09:09:38;;;;;;;10.85;6.38;;;12.80;39.80;;;;;;5053619;28;20502;-71
2022/03/09 09:12:04;;;;;;;11.65;5.65;;;12.90;39.60;;;;;;5053190;28;20033;-71
2022/03/09 09:14:30;;;;;;;12.05;6.25;;;13.00;39.40;;;;;;5054213;28;20039;-71
2022/03/09 09:16:56;;;;;;;12.20;6.82;;;13.20;39.20;;;;;;5035339;28;20029;-71
2022/03/09 09:19:21;;;;;;;11.77;5.90;;;13.30;38.90;;;;;;5034636;28;20048;-70
2022/03/09 09:21:47;;;;;;;9.52;5.88;;;13.50;38.70;;;;;;5051998;28;20446;-71
2022/03/09 09:24:14;;;;;;;11.82;6.10;;;13.60;38.40;;;;;;5035551;28;20157;-71
2022/03/09 09:26:40;;;;;;;12.20;6.15;;;13.70;38.20;;;;;;5034624;28;20103;-70
2022/03/09 09:29:06;;;;;;;12.95;7.25;;;13.90;38.10;;;;;;5050834;28;20049;-71
2022/03/09 09:31:33;;;;;;;11.00;6.45;;;14.00;37.80;;;;;;5051606;28;20025;-71
2022/03/09 09:33:59;;;;;;;11.88;6.25;;;14.00;37.60;;;;;;5039550;28;20040;-71
2022/03/09 09:36:24;;;;;;;12.65;6.57;;;14.10;37.60;;;;;;5034757;28;20021;-70
2022/03/09 09:38:50;;;;;;;10.27;5.68;;;14.10;37.40;;;;;;5047064;28;20037;-70
2022/03/09 09:41:19;;;;;;;11.35;6.05;;;14.10;37.30;;;;;;5053783;28;20115;-70
2022/03/09 09:43:45;;;;;;;10.75;6.38;;;14.20;37.30;;;;;;5040842;28;20029;-70
2022/03/09 09:46:12;;;;;;;10.85;6.40;;;14.30;37.10;;;;;;5033556;28;20033;-71
2022/03/09 09:48:39;;;;;;;12.15;5.93;;;14.30;37.00;;;;;;5045467;28;20035;-71
2022/03/09 09:51:05;;;;;;;10.23;6.03;;;14.30;36.90;;;;;;5053702;28;20036;-71
2022/03/09 09:53:33;;;;;;;11.23;5.68;;;14.20;36.90;;;;;;5053448;28;20036;-71
2022/03/09 09:56:00;;;;;;;11.32;6.75;;;14.20;36.90;;;;;;5033661;28;20368;-71
2022/03/09 09:58:28;;;;;;;10.45;6.32;;;14.30;36.90;;;;;;5034313;28;20052;-70
2022/03/09 10:00:55;;;;;;;12.38;6.22;;;14.30;36.80;;;;;;5044697;28;20037;-71
2022/03/09 10:03:20;;;;;;;11.88;6.30;;;14.40;36.60;;;;;;5033464;28;20109;-71
2022/03/09 10:05:47;;;;;;;11.13;6.40;;;14.50;36.60;;;;;;5037371;28;20123;-71
2022/03/09 10:08:15;;;;;;;10.90;6.20;;;14.60;36.40;;;;;;5033899;28;20029;-71
2022/03/09 10:11:01;;;;;;;12.55;6.43;;;14.60;36.30;;;;;;5045671;28;20037;-71
2022/03/09 10:13:40;;;;;;;10.57;6.35;;;14.70;36.20;;;;;;5018969;28;20358;-71
2022/03/09 10:16:10;;;;;;;10.90;5.95;;;14.80;36.10;;;;;;5047328;28;20444;-70
2022/03/09 10:18:36;;;;;;;11.20;7.32;;;14.80;36.10;;;;;;5043055;28;20029;-72
2022/03/09 10:21:11;;;;;;;10.93;6.30;;;14.80;36.00;;;;;;5031884;28;20171;-72
2022/03/09 10:23:59;;;;;;;11.43;6.30;;;14.80;35.80;;;;;;5047937;28;20025;-72
2022/03/09 10:26:27;;;;;;;10.68;5.72;;;14.80;35.70;;;;;;5045238;28;20488;-72
2022/03/09 10:29:02;;;;;;;11.57;6.55;;;14.80;35.80;;;;;;5025673;28;20036;-72
2022/03/09 10:31:40;;;;;;;9.23;5.63;;;14.90;35.60;;;;;;5049968;28;20099;-72
2022/03/09 10:34:08;;;;;;;9.82;5.80;;;14.90;35.60;;;;;;5050234;28;20028;-72
2022/03/09 10:36:34;;;;;;;12.75;5.85;;;14.90;35.60;;;;;;5041780;28;20039;-72
2022/03/09 10:39:14;;;;;;;11.40;6.82;;;14.90;35.60;;;;;;5045621;28;20064;-73
2022/03/09 10:41:40;;;;;;;10.85;6.38;;;14.90;35.60;;;;;;5053640;28;20455;-72
2022/03/09 10:44:06;;;;;;;12.90;6.93;;;15.00;35.70;;;;;;5054827;28;20395;-72
2022/03/09 10:46:49;;;;;;;11.43;6.97;;;15.00;36.20;;;;;;5025650;28;20351;-72
2022/03/09 10:49:19;;;;;;;12.95;6.70;;;14.90;35.50;;;;;;5037191;28;20039;-73
2022/03/09 10:51:50;;;;;;;12.70;7.43;;;15.00;35.70;;;;;;5037500;28;20068;-73
2022/03/09 10:54:27;;;;;;;12.63;6.78;;;15.00;35.60;;;;;;5055963;28;20040;-73
2022/03/09 10:57:29;;;;;;;13.15;6.78;;;15.10;35.50;;;;;;5057417;28;20385;-73
2022/03/09 10:59:55;;;;;;;10.10;5.78;;;15.20;35.60;;;;;;5049581;28;20045;-73
2022/03/09 11:02:22;;;;;;;11.55;6.65;;;15.30;35.60;;;;;;5035989;28;20029;-73
2022/03/09 11:05:08;;;;;;;12.52;5.75;;;15.30;35.50;;;;;;5040614;28;20033;-73
2022/03/09 11:07:37;;;;;;;13.55;6.68;;;15.30;35.30;;;;;;5039790;28;20025;-70
2022/03/09 11:10:04;;;;;;;14.90;6.72;;;15.30;35.20;;;;;;5035512;28;20074;-71
2022/03/09 11:12:31;;;;;;;11.40;6.50;;;15.40;35.20;;;;;;5037890;28;20044;-72
2022/03/09 11:14:57;;;;;;;11.68;6.50;;;15.40;35.10;;;;;;5036821;28;20069;-73
2022/03/09 11:17:23;;;;;;;12.38;6.82;;;15.40;35.10;;;;;;5028886;28;20045;-71
2022/03/09 11:19:49;;;;;;;13.48;7.30;;;15.50;35.10;;;;;;5042724;28;20369;-71
2022/03/09 11:22:14;;;;;;;12.30;6.68;;;15.50;35.10;;;;;;5043112;28;20036;-71
2022/03/09 11:24:41;;;;;;;14.07;7.13;;;15.50;35.00;;;;;;5047383;28;20037;-71
2022/03/09 11:27:07;;;;;;;12.35;7.05;;;15.50;34.90;;;;;;5048708;28;20041;-71
2022/03/09 11:29:35;;;;;;;14.80;7.68;;;15.60;34.90;;;;;;5045498;28;20055;-70
2022/03/09 11:32:02;;;;;;;12.95;7.55;;;15.60;35.40;;;;;;5047650;28;20043;-71
2022/03/09 11:34:44;;;;;;;13.30;7.13;;;15.70;34.70;;;;;;5052676;28;20179;-70
2022/03/09 11:37:13;;;;;;;12.82;7.25;;;15.60;34.50;;;;;;5051426;28;20021;-71
2022/03/09 11:39:41;;;;;;;12.55;6.97;;;15.60;34.60;;;;;;5044265;28;20350;-71
2022/03/09 11:42:21;;;;;;;12.48;7.30;;;15.60;34.70;;;;;;5054220;28;20083;-71
2022/03/09 11:44:48;;;;;;;11.95;7.40;;;15.60;34.50;;;;;;5051018;28;20449;-72
2022/03/09 11:47:15;;;;;;;13.65;7.63;;;15.60;34.70;;;;;;5047590;28;20033;-72
2022/03/09 11:49:50;;;;;;;14.55;9.15;;;15.60;34.50;;;;;;5037504;28;20033;-73
2022/03/09 11:52:20;;;;;;;11.93;7.38;;;15.60;34.60;;;;;;5035240;28;20043;-71
2022/03/09 11:54:53;;;;;;;13.98;8.98;;;15.70;34.60;;;;;;5035990;28;20030;-72
2022/03/09 11:57:22;;;;;;;14.55;7.68;;;15.60;34.20;;;;;;5040863;28;20028;-72
2022/03/09 12:00:07;;;;;;;13.50;7.97;;;15.60;34.40;;;;;;5034849;28;20122;-72
2022/03/09 12:02:48;;;;;;;17.10;7.30;;;15.60;34.30;;;;;;5043699;28;20079;-72
2022/03/09 12:05:31;;;;;;;15.23;7.28;;;15.70;34.60;;;;;;5037732;28;20033;-69
2022/03/09 12:08:00;;;;;;;14.05;7.80;;;15.60;34.40;;;;;;5054967;28;20090;-71
2022/03/09 12:10:46;;;;;;;12.80;8.00;;;15.60;34.40;;;;;;5042784;28;20430;-69
2022/03/09 12:13:17;;;;;;;15.82;8.30;;;15.50;34.30;;;;;;5044318;28;20081;-71
2022/03/09 12:16:19;;;;;;;13.70;7.82;;;15.60;34.40;;;;;;5053014;28;20025;-71
2022/03/09 12:18:57;;;;;;;14.95;9.32;;;15.60;34.30;;;;;;5017257;28;20144;-71
2022/03/09 12:21:25;;;;;;;13.63;8.13;;;15.40;34.30;;;;;;5052731;28;20112;-71
2022/03/09 12:24:00;;;;;;;13.65;8.07;;;15.40;34.30;;;;;;5055328;28;20108;-72
2022/03/09 12:26:43;;;;;;;17.80;8.55;;;15.50;34.50;;;;;;5054436;28;20068;-72
2022/03/09 12:29:20;;;;;;;13.75;7.47;;;15.50;34.40;;;;;;5053961;28;20421;-71
2022/03/09 12:31:47;;;;;;;14.45;8.50;;;15.50;34.30;;;;;;5054817;28;20068;-72
2022/03/09 12:34:39;;;;;;;14.32;8.18;;;15.50;34.40;;;;;;5054767;28;20044;-72
2022/03/09 12:37:07;;;;;;;;;;;15.50;34.30;;;;;;5051934;28;20409;-72
2022/03/09 12:39:33;;;;;;;12.63;6.88;;;15.50;34.60;;;;;;5055210;28;20401;-72
2022/03/09 12:42:00;;;;;;;16.27;8.13;;;15.50;34.60;;;;;;5055284;28;20067;-72